createdAt,value
2023-04-16T00:01:17.815Z,7.13
2023-04-16T00:03:44.567Z,7.15
2023-04-16T00:06:12.604Z,7.12
2023-04-16T00:08:40.214Z,7.19
2023-04-16T00:11:07.343Z,7.05
2023-04-16T00:13:36.687Z,7.13
2023-04-16T00:16:08.218Z,7.06
2023-04-16T00:18:34.878Z,7.19
2023-04-16T00:21:03.928Z,7.13
2023-04-16T00:23:30.580Z,7.11
2023-04-16T00:26:00.115Z,7.19
2023-04-16T00:28:29.684Z,7.23
2023-04-16T00:31:01.095Z,7.27
2023-04-16T00:33:27.740Z,7.17
2023-04-16T00:35:56.523Z,7.24
2023-04-16T00:38:25.332Z,7.27
2023-04-16T00:40:58.844Z,7.29
2023-04-16T00:43:29.108Z,7.22
2023-04-16T00:45:57.337Z,7.28
2023-04-16T00:48:27.879Z,7.30
2023-04-16T00:50:55.467Z,7.18
2023-04-16T00:53:22.401Z,7.21
2023-04-16T00:55:51.598Z,7.27
2023-04-16T00:58:18.579Z,7.29
2023-04-16T01:00:47.364Z,7.32
2023-04-16T01:03:14.236Z,7.31
2023-04-16T01:05:41.114Z,7.29
2023-04-16T01:08:15.296Z,7.26
2023-04-16T01:10:41.847Z,7.32
2023-04-16T01:13:11.119Z,7.37
2023-04-16T01:15:40.035Z,7.34
2023-04-16T01:18:16.776Z,7.35
2023-04-16T01:20:43.676Z,7.32
2023-04-16T01:23:10.257Z,7.34
2023-04-16T01:25:36.835Z,7.32
2023-04-16T01:28:03.514Z,7.24
2023-04-16T01:30:32.452Z,7.25
2023-04-16T01:33:01.374Z,7.25
2023-04-16T01:35:30.033Z,7.22
2023-04-16T01:37:58.944Z,7.06
2023-04-16T01:40:25.563Z,7.11
2023-04-16T01:42:52.258Z,7.08
2023-04-16T01:45:21.070Z,7.02
2023-04-16T01:47:52.508Z,6.91
2023-04-16T01:50:22.081Z,6.98
2023-04-16T01:52:50.937Z,6.77
2023-04-16T01:55:17.602Z,6.89
2023-04-16T01:57:44.145Z,6.98
2023-04-16T02:00:11.432Z,6.97
2023-04-16T02:02:40.486Z,6.98
2023-04-16T02:05:07.226Z,7.02
2023-04-16T02:07:36.417Z,7.05
2023-04-16T02:10:04.724Z,7.04
2023-04-16T02:12:34.303Z,7.12
2023-04-16T02:15:00.941Z,7.15
2023-04-16T02:17:32.080Z,7.15
2023-04-16T02:20:03.593Z,7.14
2023-04-16T02:22:30.158Z,7.17
2023-04-16T02:24:56.690Z,7.19
2023-04-16T02:27:23.260Z,7.21
2023-04-16T02:29:52.060Z,7.19
2023-04-16T02:32:21.073Z,7.09
2023-04-16T02:34:47.638Z,7.11
2023-04-16T02:37:15.405Z,7.12
2023-04-16T02:39:42.927Z,7.09
2023-04-16T02:42:11.548Z,7.11
2023-04-16T02:44:40.498Z,7.07
2023-04-16T02:47:07.074Z,7.08
2023-04-16T02:49:33.665Z,7.12
2023-04-16T02:52:02.699Z,7.11
2023-04-16T02:54:29.248Z,7.00
2023-04-16T02:56:58.816Z,7.03
2023-04-16T02:59:25.831Z,7.08
2023-04-16T03:01:52.443Z,6.98
2023-04-16T03:04:19.101Z,6.93
2023-04-16T03:06:48.457Z,6.89
2023-04-16T03:09:17.358Z,6.97
2023-04-16T03:11:43.942Z,6.99
2023-04-16T03:14:10.527Z,6.99
2023-04-16T03:16:37.053Z,7.01
2023-04-16T03:19:06.089Z,6.82
2023-04-16T03:21:32.766Z,6.92
2023-04-16T03:23:59.309Z,7.01
2023-04-16T03:26:28.547Z,6.97
2023-04-16T03:28:57.554Z,7.04
2023-04-16T03:31:32.195Z,7.01
2023-04-16T03:34:01.742Z,7.07
2023-04-16T03:36:31.486Z,7.10
2023-04-16T03:39:00.317Z,7.11
2023-04-16T03:41:27.067Z,7.14
2023-04-16T03:43:56.129Z,7.13
2023-04-16T03:46:22.778Z,7.15
2023-04-16T03:48:49.343Z,7.15
2023-04-16T03:51:20.564Z,7.12
2023-04-16T03:53:49.468Z,7.11
2023-04-16T03:56:16.206Z,7.14
2023-04-16T03:58:42.778Z,7.15
2023-04-16T04:01:09.350Z,7.13
2023-04-16T04:03:36.209Z,7.14
2023-04-16T04:06:08.257Z,7.14
2023-04-16T04:08:37.300Z,7.16
2023-04-16T04:11:04.317Z,7.16
2023-04-16T04:13:38.212Z,7.16
2023-04-16T04:16:07.800Z,7.15
2023-04-16T04:18:37.947Z,7.11
2023-04-16T04:21:08.527Z,7.13
2023-04-16T04:23:36.010Z,7.13
2023-04-16T04:26:07.433Z,7.16
2023-04-16T04:28:39.041Z,7.11
2023-04-16T04:31:06.810Z,7.08
2023-04-16T04:33:33.504Z,7.06
2023-04-16T04:36:02.378Z,6.97
2023-04-16T04:38:30.145Z,6.90
2023-04-16T04:40:56.721Z,6.92
2023-04-16T04:43:23.763Z,6.91
2023-04-16T04:45:50.428Z,6.91
2023-04-16T04:48:19.438Z,6.90
2023-04-16T04:50:46.511Z,6.84
2023-04-16T04:53:18.410Z,6.86
2023-04-16T04:55:44.960Z,6.92
2023-04-16T04:58:11.485Z,6.92
2023-04-16T05:00:42.856Z,6.96
2023-04-16T05:03:13.812Z,7.00
2023-04-16T05:05:41.314Z,6.97
2023-04-16T05:08:10.231Z,6.99
2023-04-16T05:10:36.779Z,6.99
2023-04-16T05:13:03.413Z,6.93
2023-04-16T05:15:30.026Z,6.98
2023-04-16T05:17:56.609Z,6.96
2023-04-16T05:20:24.338Z,6.98
2023-04-16T05:22:55.440Z,7.00
2023-04-16T05:25:22.400Z,7.01
2023-04-16T05:27:51.938Z,7.03
2023-04-16T05:30:20.993Z,7.05
2023-04-16T05:32:47.574Z,7.09
2023-04-16T05:35:15.990Z,7.09
2023-04-16T05:37:43.979Z,7.06
2023-04-16T05:40:13.981Z,7.10
2023-04-16T05:42:40.581Z,7.14
2023-04-16T05:45:07.650Z,7.15
2023-04-16T05:47:36.567Z,7.18
2023-04-16T05:50:03.099Z,7.18
2023-04-16T05:52:29.687Z,7.16
2023-04-16T05:54:56.267Z,7.16
2023-04-16T05:57:22.817Z,7.14
2023-04-16T05:59:49.378Z,7.17
2023-04-16T06:02:18.298Z,7.16
2023-04-16T06:04:44.935Z,7.18
2023-04-16T06:07:11.460Z,7.19
2023-04-16T06:09:38.050Z,7.20
2023-04-16T06:12:04.880Z,7.19
2023-04-16T06:14:31.405Z,7.20
2023-04-16T06:16:57.948Z,7.19
2023-04-16T06:19:24.512Z,7.22
2023-04-16T06:21:53.774Z,7.19
2023-04-16T06:24:20.429Z,7.21
2023-04-16T06:26:46.953Z,7.16
2023-04-16T06:29:22.539Z,7.13
2023-04-16T06:31:55.588Z,7.09
2023-04-16T06:34:22.260Z,7.08
2023-04-16T06:36:53.802Z,7.11
2023-04-16T06:39:21.906Z,7.11
2023-04-16T06:41:51.981Z,7.16
2023-04-16T06:44:24.405Z,7.18
2023-04-16T06:46:53.971Z,7.23
2023-04-16T06:49:21.200Z,7.40
2023-04-16T06:51:47.841Z,7.46
2023-04-16T06:54:16.932Z,7.55
2023-04-16T06:56:45.865Z,7.58
2023-04-16T06:59:12.451Z,7.61
2023-04-16T07:01:41.437Z,7.68
2023-04-16T07:04:08.222Z,7.80
2023-04-16T07:06:34.850Z,7.66
2023-04-16T07:09:01.439Z,7.72
2023-04-16T07:11:28.003Z,7.79
2023-04-16T07:13:54.628Z,7.83
2023-04-16T07:16:23.878Z,7.78
2023-04-16T07:18:52.729Z,7.83
2023-04-16T07:21:19.892Z,7.81
2023-04-16T07:23:48.744Z,7.80
2023-04-16T07:26:17.575Z,7.80
2023-04-16T07:28:44.193Z,7.73
2023-04-16T07:31:13.083Z,7.67
2023-04-16T07:33:39.615Z,7.55
2023-04-16T07:36:06.348Z,7.55
2023-04-16T07:38:34.530Z,7.50
2023-04-16T07:41:15.662Z,7.52
2023-04-16T07:43:42.501Z,7.68
2023-04-16T07:46:09.124Z,7.82
2023-04-16T07:48:35.801Z,7.92
2023-04-16T07:51:04.910Z,7.90
2023-04-16T07:53:31.572Z,7.75
2023-04-16T07:56:02.673Z,7.86
2023-04-16T07:58:31.558Z,7.81
2023-04-16T08:00:58.702Z,7.74
2023-04-16T08:03:25.418Z,7.89
2023-04-16T08:05:52.071Z,7.94
2023-04-16T08:08:18.662Z,7.91
2023-04-16T08:10:45.235Z,7.98
2023-04-16T08:13:11.806Z,7.99
2023-04-16T08:15:38.449Z,8.06
2023-04-16T08:18:12.850Z,8.02
2023-04-16T08:20:41.887Z,8.06
2023-04-16T08:23:08.598Z,8.06
2023-04-16T08:25:37.626Z,7.85
2023-04-16T08:28:04.379Z,8.03
2023-04-16T08:30:33.454Z,8.07
2023-04-16T08:33:02.652Z,7.97
2023-04-16T08:35:29.223Z,7.88
2023-04-16T08:37:57.842Z,7.93
2023-04-16T08:40:28.710Z,7.93
2023-04-16T08:43:03.107Z,7.87
2023-04-16T08:45:34.915Z,7.92
2023-04-16T08:48:02.190Z,7.89
2023-04-16T08:50:30.417Z,7.89
2023-04-16T08:52:59.845Z,7.87
2023-04-16T08:55:35.945Z,7.82
2023-04-16T08:58:08.412Z,7.83
2023-04-16T09:00:37.802Z,7.82
2023-04-16T09:03:05.291Z,7.79
2023-04-16T09:05:33.662Z,7.77
2023-04-16T09:08:02.711Z,7.80
2023-04-16T09:10:32.317Z,7.82
2023-04-16T09:13:01.514Z,7.71
2023-04-16T09:15:29.455Z,7.77
2023-04-16T09:17:57.639Z,7.71
2023-04-16T09:20:24.672Z,7.76
2023-04-16T09:23:02.574Z,7.80
2023-04-16T09:25:37.217Z,7.68
2023-04-16T09:28:06.017Z,7.85
2023-04-16T09:30:33.465Z,7.90
2023-04-16T09:33:23.514Z,7.93
2023-04-16T09:35:53.329Z,7.85
2023-04-16T09:38:26.588Z,7.93
2023-04-16T09:41:10.557Z,8.06
2023-04-16T09:43:37.115Z,8.16
2023-04-16T09:46:08.117Z,8.17
2023-04-16T09:48:37.366Z,8.22
2023-04-16T09:51:09.301Z,8.34
2023-04-16T09:53:38.237Z,8.36
2023-04-16T09:56:08.974Z,8.46
2023-04-16T09:58:38.475Z,8.52
2023-04-16T10:01:14.214Z,8.55
2023-04-16T10:03:43.429Z,8.61
2023-04-16T10:06:19.996Z,8.56
2023-04-16T10:08:54.070Z,8.71
2023-04-16T10:11:21.406Z,8.74
2023-04-16T10:13:51.066Z,8.78
2023-04-16T10:16:20.060Z,8.68
2023-04-16T10:18:49.216Z,8.75
2023-04-16T10:21:16.605Z,8.86
2023-04-16T10:23:49.738Z,8.91
2023-04-16T10:26:21.467Z,8.63
2023-04-16T10:28:50.836Z,8.78
2023-04-16T10:31:20.468Z,8.89
2023-04-16T10:33:47.583Z,8.76
2023-04-16T10:36:23.803Z,8.88
2023-04-16T10:38:53.943Z,8.88
2023-04-16T10:41:21.146Z,8.98
2023-04-16T10:43:51.140Z,9.07
2023-04-16T10:46:44.648Z,9.07
2023-04-16T10:49:19.223Z,8.97
2023-04-16T10:52:00.342Z,9.13
2023-04-16T10:54:29.045Z,9.14
2023-04-16T10:57:04.453Z,9.31
2023-04-16T10:59:34.845Z,9.39
2023-04-16T11:02:07.070Z,9.32
2023-04-16T11:04:38.074Z,9.29
2023-04-16T11:07:06.337Z,9.36
2023-04-16T11:10:12.695Z,8.96
2023-04-16T11:12:42.565Z,8.92
2023-04-16T11:15:10.430Z,8.95
2023-04-16T11:17:44.268Z,9.12
2023-04-16T11:20:20.503Z,9.27
2023-04-16T11:22:48.536Z,9.41
2023-04-16T11:25:20.872Z,9.43
2023-04-16T11:27:49.729Z,9.22
2023-04-16T11:30:18.011Z,9.30
2023-04-16T11:32:47.446Z,9.29
2023-04-16T11:35:19.058Z,9.33
2023-04-16T11:37:49.118Z,9.24
2023-04-16T11:40:16.037Z,9.20
2023-04-16T11:42:45.050Z,9.24
2023-04-16T11:45:14.567Z,9.09
2023-04-16T11:47:50.292Z,8.97
2023-04-16T11:50:29.343Z,8.95
2023-04-16T11:53:08.794Z,8.98
2023-04-16T11:55:45.915Z,9.04
2023-04-16T11:58:13.511Z,9.04
2023-04-16T12:00:43.226Z,8.89
2023-04-16T12:03:10.093Z,8.91
2023-04-16T12:05:41.439Z,8.83
2023-04-16T12:08:10.166Z,8.78
2023-04-16T12:10:59.608Z,8.84
2023-04-16T12:13:26.194Z,8.77
2023-04-16T12:15:54.313Z,8.75
2023-04-16T12:18:23.762Z,8.73
2023-04-16T12:20:53.506Z,8.80
2023-04-16T12:23:25.485Z,8.89
2023-04-16T12:25:54.753Z,8.83
2023-04-16T12:28:32.692Z,9.10
2023-04-16T12:31:02.408Z,9.06
2023-04-16T12:33:29.600Z,8.99
2023-04-16T12:35:56.480Z,8.95
2023-04-16T12:38:24.739Z,8.94
2023-04-16T12:40:56.840Z,8.98
2023-04-16T12:43:24.086Z,9.08
2023-04-16T12:45:55.545Z,8.97
2023-04-16T12:48:24.695Z,9.03
2023-04-16T12:50:54.248Z,8.94
2023-04-16T12:53:26.216Z,8.99
2023-04-16T12:55:52.797Z,9.04
2023-04-16T12:58:19.332Z,9.12
2023-04-16T13:00:45.965Z,8.96
2023-04-16T13:03:12.691Z,9.06
2023-04-16T13:05:40.343Z,9.14
2023-04-16T13:08:06.922Z,9.29
2023-04-16T13:10:33.528Z,9.28
2023-04-16T13:13:00.064Z,9.31
2023-04-16T13:15:28.921Z,9.34
2023-04-16T13:17:57.859Z,9.34
2023-04-16T13:20:24.681Z,9.37
2023-04-16T13:22:51.391Z,9.37
2023-04-16T13:25:22.852Z,9.46
2023-04-16T13:27:49.412Z,9.53
2023-04-16T13:30:16.325Z,9.62
2023-04-16T13:32:45.504Z,9.66
2023-04-16T13:35:14.181Z,9.70
2023-04-16T13:37:40.967Z,9.76
2023-04-16T13:40:10.820Z,9.76
2023-04-16T13:42:39.766Z,9.79
2023-04-16T13:45:06.752Z,9.86
2023-04-16T13:47:36.812Z,9.87
2023-04-16T13:50:06.603Z,9.75
2023-04-16T13:52:33.269Z,9.67
2023-04-16T13:55:00.249Z,9.77
2023-04-16T13:57:29.196Z,9.61
2023-04-16T13:59:56.370Z,9.49
2023-04-16T14:02:26.633Z,9.42
2023-04-16T14:04:53.949Z,9.40
2023-04-16T14:07:26.240Z,9.38
2023-04-16T14:09:53.638Z,9.29
2023-04-16T14:12:22.440Z,9.38
2023-04-16T14:14:51.276Z,9.41
2023-04-16T14:17:20.091Z,9.42
2023-04-16T14:19:49.064Z,9.36
2023-04-16T14:22:18.369Z,9.35
2023-04-16T14:24:44.896Z,9.23
2023-04-16T14:27:12.218Z,9.16
2023-04-16T14:29:41.527Z,8.94
2023-04-16T14:32:08.307Z,8.74
2023-04-16T14:34:37.135Z,8.58
2023-04-16T14:37:06.607Z,8.63
2023-04-16T14:39:36.372Z,8.44
2023-04-16T14:42:05.436Z,8.42
2023-04-16T14:44:34.588Z,8.68
2023-04-16T14:47:03.879Z,8.63
2023-04-16T14:49:30.420Z,8.52
2023-04-16T14:51:57.113Z,8.45
2023-04-16T14:54:26.536Z,8.48
2023-04-16T14:56:53.074Z,8.58
2023-04-16T14:59:22.038Z,8.66
2023-04-16T15:01:48.738Z,8.56
2023-04-16T15:04:15.467Z,8.64
2023-04-16T15:06:42.476Z,8.88
2023-04-16T15:09:09.567Z,9.06
2023-04-16T15:11:38.549Z,9.07
2023-04-16T15:14:05.549Z,9.10
2023-04-16T15:16:32.227Z,9.13
2023-04-16T15:19:06.360Z,9.03
2023-04-16T15:21:35.270Z,8.99
2023-04-16T15:24:02.613Z,8.98
2023-04-16T15:26:29.897Z,8.92
2023-04-16T15:28:58.878Z,8.94
2023-04-16T15:31:27.713Z,8.90
2023-04-16T15:33:56.626Z,8.98
2023-04-16T15:36:23.256Z,8.96
2023-04-16T15:38:49.824Z,9.00
2023-04-16T15:41:16.425Z,9.06
2023-04-16T15:43:43.036Z,9.20
2023-04-16T15:46:11.898Z,9.28
2023-04-16T15:48:38.490Z,9.40
2023-04-16T15:51:05.505Z,9.34
2023-04-16T15:53:34.288Z,9.44
2023-04-16T15:56:00.882Z,9.39
2023-04-16T15:58:27.580Z,9.46
2023-04-16T16:00:57.227Z,9.44
2023-04-16T16:03:26.404Z,9.40
2023-04-16T16:05:56.530Z,9.15
2023-04-16T16:08:24.792Z,8.92
2023-04-16T16:10:53.601Z,8.96
2023-04-16T16:13:22.383Z,8.80
2023-04-16T16:15:50.669Z,9.06
2023-04-16T16:18:17.219Z,9.12
2023-04-16T16:20:44.138Z,9.19
2023-04-16T16:23:11.500Z,9.18
2023-04-16T16:25:42.114Z,9.09
2023-04-16T16:28:10.979Z,9.07
2023-04-16T16:30:37.559Z,9.04
2023-04-16T16:33:06.266Z,9.05
2023-04-16T16:35:33.350Z,8.95
2023-04-16T16:38:01.968Z,8.79
2023-04-16T16:40:31.366Z,8.77
2023-04-16T16:42:58.006Z,8.81
2023-04-16T16:45:26.206Z,8.81
2023-04-16T16:47:52.840Z,8.78
2023-04-16T16:50:19.447Z,8.74
2023-04-16T16:52:45.976Z,8.53
2023-04-16T16:55:12.568Z,8.63
2023-04-16T16:57:41.869Z,8.57
2023-04-16T17:00:14.456Z,8.50
2023-04-16T17:02:43.997Z,8.53
2023-04-16T17:05:13.591Z,8.51
2023-04-16T17:07:40.312Z,8.60
2023-04-16T17:10:11.198Z,8.50
2023-04-16T17:12:40.130Z,8.46
2023-04-16T17:15:09.854Z,8.43
2023-04-16T17:17:36.499Z,8.46
2023-04-16T17:20:08.777Z,8.43
2023-04-16T17:22:38.412Z,8.40
2023-04-16T17:25:07.679Z,8.35
2023-04-16T17:27:34.486Z,8.35
2023-04-16T17:30:06.879Z,8.34
2023-04-16T17:32:33.673Z,8.31
2023-04-16T17:35:04.346Z,8.28
2023-04-16T17:37:31.137Z,8.35
2023-04-16T17:39:57.699Z,8.33
2023-04-16T17:42:26.509Z,8.32
2023-04-16T17:44:53.255Z,8.24
2023-04-16T17:47:19.862Z,8.19
2023-04-16T17:49:46.504Z,8.20
2023-04-16T17:52:13.139Z,8.19
2023-04-16T17:54:39.691Z,8.22
2023-04-16T17:57:09.245Z,8.08
2023-04-16T17:59:35.940Z,8.14
2023-04-16T18:02:04.935Z,8.18
2023-04-16T18:04:34.268Z,8.21
2023-04-16T18:07:03.254Z,8.17
2023-04-16T18:09:30.632Z,8.13
2023-04-16T18:11:57.589Z,7.89
2023-04-16T18:14:28.644Z,7.96
2023-04-16T18:17:02.574Z,7.93
2023-04-16T18:19:30.299Z,7.95
2023-04-16T18:21:56.844Z,7.98
2023-04-16T18:24:23.374Z,7.94
2023-04-16T18:26:49.938Z,7.94
2023-04-16T18:29:18.044Z,7.87
2023-04-16T18:31:44.888Z,7.85
2023-04-16T18:34:11.572Z,7.89
2023-04-16T18:36:38.889Z,7.86
2023-04-16T18:39:07.431Z,7.83
2023-04-16T18:41:33.979Z,7.85
2023-04-16T18:44:00.539Z,7.85
2023-04-16T18:46:27.742Z,7.84
2023-04-16T18:48:56.533Z,7.83
2023-04-16T18:51:25.359Z,7.84
2023-04-16T18:53:51.880Z,7.81
2023-04-16T18:56:23.165Z,7.78
2023-04-16T18:58:49.769Z,7.76
2023-04-16T19:01:18.631Z,7.76
2023-04-16T19:03:47.990Z,7.71
2023-04-16T19:06:14.660Z,7.73
2023-04-16T19:08:41.205Z,7.75
2023-04-16T19:11:07.792Z,7.77
2023-04-16T19:13:34.453Z,7.76
2023-04-16T19:16:02.723Z,7.72
2023-04-16T19:18:29.333Z,7.71
2023-04-16T19:21:00.483Z,7.72
2023-04-16T19:23:28.134Z,7.72
2023-04-16T19:25:57.865Z,7.62
2023-04-16T19:28:28.336Z,7.68
2023-04-16T19:30:55.532Z,7.71
2023-04-16T19:33:22.122Z,7.67
2023-04-16T19:35:51.737Z,7.67
2023-04-16T19:38:18.338Z,7.64
2023-04-16T19:40:46.693Z,7.67
2023-04-16T19:43:13.681Z,7.68
2023-04-16T19:45:47.419Z,7.71
2023-04-16T19:48:14.562Z,7.69
2023-04-16T19:50:42.125Z,7.69
2023-04-16T19:53:09.245Z,7.72
2023-04-16T19:55:36.532Z,7.69
2023-04-16T19:58:06.263Z,7.71
2023-04-16T20:00:33.994Z,7.67
2023-04-16T20:03:02.908Z,7.55
2023-04-16T20:05:29.865Z,7.58
2023-04-16T20:08:03.729Z,7.63
2023-04-16T20:10:31.592Z,7.49
2023-04-16T20:12:58.392Z,7.51
2023-04-16T20:15:29.690Z,7.57
2023-04-16T20:17:56.482Z,7.54
2023-04-16T20:20:23.702Z,7.58
2023-04-16T20:22:52.774Z,7.56
2023-04-16T20:25:21.562Z,7.56
2023-04-16T20:27:48.160Z,7.54
2023-04-16T20:30:17.139Z,7.56
2023-04-16T20:32:43.863Z,7.58
2023-04-16T20:35:11.381Z,7.50
2023-04-16T20:37:38.744Z,7.53
2023-04-16T20:40:07.937Z,7.54
2023-04-16T20:42:37.235Z,7.56
2023-04-16T20:45:04.877Z,7.56
2023-04-16T20:47:31.491Z,7.49
2023-04-16T20:49:58.194Z,7.53
2023-04-16T20:52:27.005Z,7.54
2023-04-16T20:54:56.316Z,7.54
2023-04-16T20:57:28.161Z,7.51
2023-04-16T20:59:56.980Z,7.52
2023-04-16T21:02:24.296Z,7.51
2023-04-16T21:04:55.693Z,7.50
2023-04-16T21:07:25.489Z,7.40
2023-04-16T21:09:52.062Z,7.31
2023-04-16T21:12:21.182Z,7.26
2023-04-16T21:14:50.944Z,7.27
2023-04-16T21:17:17.532Z,7.27
2023-04-16T21:19:47.100Z,7.31
2023-04-16T21:22:16.044Z,7.26
2023-04-16T21:24:42.560Z,7.36
2023-04-16T21:27:09.451Z,7.40
2023-04-16T21:29:38.244Z,7.41
2023-04-16T21:32:05.078Z,7.43
2023-04-16T21:34:31.619Z,7.43
2023-04-16T21:36:58.223Z,7.45
2023-04-16T21:39:27.582Z,7.44
2023-04-16T21:41:54.152Z,7.42
2023-04-16T21:44:21.179Z,7.42
2023-04-16T21:46:49.986Z,7.35
2023-04-16T21:49:16.674Z,7.38
2023-04-16T21:51:43.227Z,7.38
2023-04-16T21:54:09.774Z,7.40
2023-04-16T21:56:36.290Z,7.28
2023-04-16T21:59:02.908Z,7.36
2023-04-16T22:01:29.480Z,7.40
2023-04-16T22:03:58.490Z,7.30
2023-04-16T22:06:26.129Z,7.42
2023-04-16T22:08:58.948Z,7.40
2023-04-16T22:11:28.058Z,7.41
2023-04-16T22:13:57.856Z,7.25
2023-04-16T22:16:26.790Z,7.36
2023-04-16T22:18:54.923Z,7.27
2023-04-16T22:21:24.904Z,7.35
2023-04-16T22:23:53.786Z,7.40
2023-04-16T22:26:20.923Z,7.36
2023-04-16T22:28:49.974Z,7.42
2023-04-16T22:31:16.730Z,7.45
2023-04-16T22:33:45.550Z,7.44
2023-04-16T22:36:14.560Z,7.40
2023-04-16T22:38:41.446Z,7.26
2023-04-16T22:41:07.981Z,7.26
2023-04-16T22:43:37.536Z,7.32
2023-04-16T22:46:07.995Z,7.34
2023-04-16T22:48:38.791Z,7.33
2023-04-16T22:51:07.644Z,7.21
2023-04-16T22:53:36.995Z,7.30
2023-04-16T22:56:06.095Z,7.35
2023-04-16T22:58:32.618Z,7.37
2023-04-16T23:01:01.451Z,7.43
2023-04-16T23:03:30.689Z,7.40
2023-04-16T23:05:57.409Z,7.34
2023-04-16T23:08:28.932Z,7.22
2023-04-16T23:10:55.649Z,7.19
2023-04-16T23:13:22.297Z,7.18
2023-04-16T23:15:48.899Z,7.18
2023-04-16T23:18:17.811Z,7.26
2023-04-16T23:20:44.337Z,7.28
2023-04-16T23:23:10.941Z,7.31
2023-04-16T23:25:40.591Z,7.34
2023-04-16T23:28:07.091Z,7.33
2023-04-16T23:30:33.660Z,7.38
2023-04-16T23:33:00.313Z,7.38
2023-04-16T23:35:26.942Z,7.37
2023-04-16T23:37:56.027Z,7.35
2023-04-16T23:40:24.644Z,7.38
2023-04-16T23:42:53.517Z,7.32
2023-04-16T23:45:20.129Z,7.35
2023-04-16T23:47:50.844Z,7.15
2023-04-16T23:50:17.542Z,7.03
2023-04-16T23:52:44.086Z,6.96
2023-04-16T23:55:10.666Z,6.93
2023-04-16T23:57:37.205Z,7.06
